createdAt,value
2019-05-10T00:00:53.794Z,47.40
2019-05-10T00:03:43.424Z,46.43
2019-05-10T00:06:32.750Z,46.17
2019-05-10T00:09:04.144Z,46.50
2019-05-10T00:11:54.148Z,46.80
2019-05-10T00:14:39.274Z,46.57
2019-05-10T00:17:20.561Z,46.20
2019-05-10T00:19:54.514Z,44.60
2019-05-10T00:22:26.754Z,44.87
2019-05-10T00:25:04.349Z,41.90
2019-05-10T00:27:34.357Z,42.73
2019-05-10T00:30:07.185Z,43.87
2019-05-10T00:32:39.179Z,36.47
2019-05-10T00:35:11.292Z,39.10
2019-05-10T00:37:43.400Z,42.53
2019-05-10T00:40:15.359Z,40.17
2019-05-10T00:42:47.371Z,45.37
2019-05-10T00:45:19.359Z,45.67
2019-05-10T00:47:51.688Z,42.00
2019-05-10T00:50:23.817Z,38.50
2019-05-10T00:52:56.359Z,43.17
2019-05-10T00:55:28.326Z,42.80
2019-05-10T00:58:00.714Z,42.57
2019-05-10T01:00:32.725Z,45.23
2019-05-10T01:03:04.777Z,43.57
2019-05-10T01:05:36.786Z,46.83
2019-05-10T01:08:10.686Z,39.73
2019-05-10T01:10:42.681Z,44.93
2019-05-10T01:13:14.646Z,42.03
2019-05-10T01:15:47.054Z,40.47
2019-05-10T01:18:20.552Z,45.97
2019-05-10T01:20:52.645Z,44.37
2019-05-10T01:23:24.608Z,42.97
2019-05-10T01:25:57.508Z,39.90
2019-05-10T01:28:29.480Z,41.57
2019-05-10T01:31:01.417Z,43.53
2019-05-10T01:33:33.407Z,43.30
2019-05-10T01:36:05.381Z,42.13
2019-05-10T01:38:37.368Z,38.60
2019-05-10T01:41:09.293Z,39.13
2019-05-10T01:43:41.476Z,40.03
2019-05-10T01:46:13.438Z,36.67
2019-05-10T01:48:45.538Z,38.33
2019-05-10T01:51:17.526Z,35.97
2019-05-10T01:53:50.618Z,38.57
2019-05-10T01:56:23.926Z,38.03
2019-05-10T01:58:55.951Z,38.03
2019-05-10T02:01:27.975Z,36.47
2019-05-10T02:04:00.429Z,39.20
2019-05-10T02:06:32.424Z,37.47
2019-05-10T02:09:05.620Z,38.67
2019-05-10T02:11:37.612Z,39.57
2019-05-10T02:14:10.288Z,45.30
2019-05-10T02:16:42.298Z,43.80
2019-05-10T02:19:14.274Z,43.23
2019-05-10T02:21:46.206Z,41.07
2019-05-10T02:24:18.192Z,40.17
2019-05-10T02:26:50.182Z,48.17
2019-05-10T02:29:22.228Z,45.13
2019-05-10T02:31:55.345Z,45.67
2019-05-10T02:34:27.442Z,45.00
2019-05-10T02:36:59.478Z,39.37
2019-05-10T02:39:31.461Z,42.23
2019-05-10T02:42:03.431Z,40.50
2019-05-10T02:44:35.421Z,39.70
2019-05-10T02:47:07.412Z,40.30
2019-05-10T02:49:39.387Z,39.47
2019-05-10T02:52:11.360Z,40.80
2019-05-10T02:54:44.621Z,34.70
2019-05-10T02:57:17.708Z,37.40
2019-05-10T02:59:51.600Z,36.37
2019-05-10T03:02:24.724Z,35.03
2019-05-10T03:04:57.553Z,33.90
2019-05-10T03:07:31.079Z,32.93
2019-05-10T03:10:05.328Z,35.03
2019-05-10T03:12:40.935Z,34.27
2019-05-10T03:15:13.947Z,32.57
2019-05-10T03:17:45.925Z,30.43
2019-05-10T03:20:18.856Z,33.67
2019-05-10T03:22:51.404Z,33.43
2019-05-10T03:25:23.489Z,30.90
2019-05-10T03:27:55.445Z,30.10
2019-05-10T03:30:27.509Z,28.80
2019-05-10T03:32:59.560Z,31.30
2019-05-10T03:35:31.578Z,29.13
2019-05-10T03:38:03.647Z,30.57
2019-05-10T03:40:35.791Z,31.47
2019-05-10T03:43:08.037Z,30.07
2019-05-10T03:45:40.255Z,32.40
2019-05-10T03:48:12.244Z,31.73
2019-05-10T03:50:44.313Z,31.23
2019-05-10T03:53:16.266Z,31.07
2019-05-10T03:55:48.270Z,31.50
2019-05-10T03:58:20.531Z,29.90
2019-05-10T04:00:52.593Z,31.70
2019-05-10T04:03:24.821Z,31.83
2019-05-10T04:05:56.918Z,30.03
2019-05-10T04:08:28.934Z,31.10
2019-05-10T04:11:01.509Z,31.13
2019-05-10T04:13:33.650Z,29.43
2019-05-10T04:16:05.590Z,29.70
2019-05-10T04:18:37.548Z,26.80
2019-05-10T04:21:09.511Z,26.83
2019-05-10T04:23:41.516Z,27.17
2019-05-10T04:26:14.958Z,24.97
2019-05-10T04:28:47.016Z,25.13
2019-05-10T04:31:19.069Z,24.33
2019-05-10T04:33:51.316Z,24.40
2019-05-10T04:36:23.417Z,22.53
2019-05-10T04:38:55.412Z,22.83
2019-05-10T04:41:28.469Z,20.87
2019-05-10T04:44:00.842Z,21.00
2019-05-10T04:46:34.750Z,20.83
2019-05-10T04:49:06.769Z,20.90
2019-05-10T04:51:38.835Z,20.60
2019-05-10T04:54:10.796Z,20.20
2019-05-10T04:56:42.761Z,18.30
2019-05-10T04:59:14.851Z,18.83
2019-05-10T05:01:46.945Z,17.43
2019-05-10T05:04:18.959Z,17.80
2019-05-10T05:06:50.948Z,17.63
2019-05-10T05:09:23.026Z,16.97
2019-05-10T05:11:55.174Z,17.17
2019-05-10T05:14:27.330Z,16.57
2019-05-10T05:17:00.071Z,16.27
2019-05-10T05:19:32.106Z,15.27
2019-05-10T05:22:04.187Z,16.03
2019-05-10T05:24:36.224Z,15.00
2019-05-10T05:27:08.297Z,17.00
2019-05-10T05:29:40.720Z,15.57
2019-05-10T05:32:13.461Z,16.03
2019-05-10T05:34:45.864Z,15.93
2019-05-10T05:37:17.972Z,16.33
2019-05-10T05:39:50.106Z,16.27
2019-05-10T05:42:27.338Z,15.72
2019-05-10T05:44:56.059Z,14.93
2019-05-10T05:47:28.074Z,13.55
2019-05-10T05:50:00.461Z,12.78
2019-05-10T05:52:32.791Z,11.03
2019-05-10T05:55:05.429Z,10.80
2019-05-10T05:57:37.519Z,10.38
2019-05-10T06:00:10.058Z,9.30
2019-05-10T06:02:44.851Z,9.75
2019-05-10T06:05:32.726Z,8.68
2019-05-10T06:07:52.266Z,9.73
2019-05-10T06:10:24.477Z,8.88
2019-05-10T06:12:56.589Z,9.80
2019-05-10T06:15:31.140Z,9.75
2019-05-10T06:18:03.282Z,11.10
2019-05-10T06:20:38.163Z,9.48
2019-05-10T06:23:10.163Z,7.75
2019-05-10T06:25:42.945Z,39.95
2019-05-10T06:28:26.420Z,50.70
2019-05-10T06:30:48.845Z,21.70
2019-05-10T06:33:21.070Z,20.30
2019-05-10T06:35:53.078Z,17.67
2019-05-10T06:38:25.068Z,25.55
2019-05-10T06:40:57.182Z,10.88
2019-05-10T06:43:30.435Z,6.20
2019-05-10T06:46:03.937Z,7.17
2019-05-10T06:48:35.956Z,6.08
2019-05-10T06:51:09.784Z,6.28
2019-05-10T06:53:52.249Z,5.25
2019-05-10T06:56:16.553Z,4.28
2019-05-10T06:58:48.537Z,4.08
2019-05-10T07:01:20.890Z,4.60
2019-05-10T07:03:52.996Z,3.80
2019-05-10T07:06:25.100Z,3.65
2019-05-10T07:08:57.727Z,3.70
2019-05-10T07:11:31.071Z,3.85
2019-05-10T07:14:03.923Z,3.92
2019-05-10T07:16:36.322Z,3.50
2019-05-10T07:19:10.095Z,3.40
2019-05-10T07:21:44.761Z,3.25
2019-05-10T07:24:18.324Z,3.55
2019-05-10T07:26:50.796Z,4.92
2019-05-10T07:29:29.936Z,4.17
2019-05-10T07:31:56.588Z,3.90
2019-05-10T07:34:28.640Z,3.87
2019-05-10T07:37:01.915Z,3.40
2019-05-10T07:39:34.283Z,6.55
2019-05-10T07:42:07.213Z,4.20
2019-05-10T07:44:41.595Z,4.15
2019-05-10T07:47:13.748Z,4.00
2019-05-10T07:49:45.689Z,4.22
2019-05-10T07:52:17.688Z,3.87
2019-05-10T07:54:50.222Z,3.90
2019-05-10T07:57:24.769Z,3.27
2019-05-10T07:59:57.540Z,4.08
2019-05-10T08:02:29.565Z,3.50
2019-05-10T08:05:04.936Z,2.50
2019-05-10T08:07:35.326Z,2.87
2019-05-10T08:10:08.871Z,3.20
2019-05-10T08:12:45.434Z,3.42
2019-05-10T08:15:16.064Z,2.40
2019-05-10T08:17:50.675Z,2.20
2019-05-10T08:20:38.068Z,2.95
2019-05-10T08:22:55.368Z,3.60
2019-05-10T08:25:29.066Z,4.40
2019-05-10T08:28:05.323Z,4.08
2019-05-10T08:30:51.885Z,3.90
2019-05-10T08:33:14.349Z,4.60
2019-05-10T08:35:54.569Z,4.47
2019-05-10T08:38:21.981Z,4.20
2019-05-10T08:40:54.250Z,3.60
2019-05-10T08:43:30.781Z,3.25
2019-05-10T08:46:02.464Z,2.90
2019-05-10T08:48:38.199Z,3.00
2019-05-10T08:51:07.792Z,2.80
2019-05-10T08:53:42.200Z,3.00
2019-05-10T08:56:21.077Z,3.20
2019-05-10T08:58:47.609Z,3.17
2019-05-10T09:01:27.686Z,3.35
2019-05-10T09:03:59.135Z,3.40
2019-05-10T09:06:27.641Z,3.20
2019-05-10T09:09:05.972Z,2.80
2019-05-10T09:11:33.416Z,2.77
2019-05-10T09:14:05.442Z,2.98
2019-05-10T09:16:43.521Z,3.30
2019-05-10T09:19:12.459Z,2.83
2019-05-10T09:21:49.841Z,3.12
2019-05-10T09:24:18.385Z,3.05
2019-05-10T09:26:52.789Z,2.70
2019-05-10T09:29:27.397Z,3.27
2019-05-10T09:32:01.116Z,3.58
2019-05-10T09:34:32.500Z,4.08
2019-05-10T09:37:08.306Z,4.78
2019-05-10T09:39:38.393Z,4.22
2019-05-10T09:42:24.759Z,4.42
2019-05-10T09:44:46.000Z,4.87
2019-05-10T09:47:18.176Z,5.33
2019-05-10T09:49:56.520Z,5.78
2019-05-10T09:52:24.125Z,6.53
2019-05-10T09:54:56.943Z,6.40
2019-05-10T09:57:32.133Z,8.33
2019-05-10T10:00:03.065Z,7.30
2019-05-10T10:02:37.245Z,7.77
2019-05-10T10:05:09.892Z,7.63
2019-05-10T10:07:41.921Z,7.50
2019-05-10T10:10:20.740Z,7.83
2019-05-10T10:12:47.715Z,6.43
2019-05-10T10:15:32.080Z,8.07
2019-05-10T10:17:53.780Z,7.00
2019-05-10T10:20:29.785Z,7.03
2019-05-10T10:22:59.560Z,9.33
2019-05-10T10:25:35.078Z,15.40
2019-05-10T10:28:10.300Z,8.00
2019-05-10T10:30:39.040Z,13.60
2019-05-10T10:33:14.793Z,12.23
2019-05-10T10:35:44.813Z,8.33
2019-05-10T10:38:17.879Z,4.80
2019-05-10T10:40:50.078Z,12.80
2019-05-10T10:43:22.108Z,6.80
2019-05-10T10:45:54.103Z,6.40
2019-05-10T10:48:28.302Z,9.97
2019-05-10T10:51:00.186Z,12.47
2019-05-10T10:53:32.356Z,6.60
2019-05-10T10:56:07.741Z,14.03
2019-05-10T10:58:39.891Z,12.73
2019-05-10T11:01:21.501Z,7.23
2019-05-10T11:03:48.739Z,9.37
2019-05-10T11:06:21.264Z,8.93
2019-05-10T11:08:53.290Z,9.13
2019-05-10T11:11:30.507Z,14.43
2019-05-10T11:14:06.816Z,10.00
2019-05-10T11:16:32.797Z,15.00
2019-05-10T11:19:11.144Z,4.73
2019-05-10T11:21:38.609Z,4.40
2019-05-10T11:24:17.891Z,3.77
2019-05-10T11:26:45.010Z,5.40
2019-05-10T11:29:25.422Z,5.20
2019-05-10T11:32:11.188Z,5.03
2019-05-10T11:34:31.641Z,4.47
2019-05-10T11:36:59.931Z,7.23
2019-05-10T11:39:33.254Z,12.17
2019-05-10T11:42:07.360Z,9.23
2019-05-10T11:44:41.579Z,5.57
2019-05-10T11:47:23.307Z,6.53
2019-05-10T11:49:47.070Z,2.90
2019-05-10T11:52:21.510Z,1.70
2019-05-10T11:54:52.831Z,2.70
2019-05-10T11:57:24.811Z,2.50
2019-05-10T11:59:56.867Z,2.50
2019-05-10T12:02:42.064Z,2.90
2019-05-10T12:05:10.821Z,2.67
2019-05-10T12:07:45.472Z,3.00
2019-05-10T12:10:18.326Z,3.07
2019-05-10T12:13:00.425Z,3.90
2019-05-10T12:15:25.113Z,4.57
2019-05-10T12:17:57.980Z,4.60
2019-05-10T12:20:39.394Z,5.20
2019-05-10T12:23:03.386Z,4.90
2019-05-10T12:25:51.610Z,4.17
2019-05-10T12:28:07.845Z,4.07
2019-05-10T12:30:40.862Z,4.50
2019-05-10T12:33:23.930Z,5.47
2019-05-10T12:35:47.482Z,6.10
2019-05-10T12:38:23.479Z,6.07
2019-05-10T12:40:54.117Z,5.17
2019-05-10T12:43:26.083Z,5.20
2019-05-10T12:45:58.063Z,5.30
2019-05-10T12:48:32.790Z,5.93
2019-05-10T12:51:11.563Z,14.13
2019-05-10T12:53:44.471Z,9.83
2019-05-10T12:56:14.772Z,9.43
2019-05-10T12:58:56.783Z,9.90
2019-05-10T13:01:25.550Z,5.63
2019-05-10T13:03:54.872Z,15.73
2019-05-10T13:06:26.930Z,8.53
2019-05-10T13:08:59.446Z,6.70
2019-05-10T13:11:31.573Z,7.37
2019-05-10T13:14:07.163Z,5.67
2019-05-10T13:16:37.611Z,5.83
2019-05-10T13:19:14.234Z,5.30
2019-05-10T13:21:43.379Z,23.23
2019-05-10T13:24:15.396Z,15.50
2019-05-10T13:26:47.404Z,8.60
2019-05-10T13:29:19.412Z,5.93
2019-05-10T13:31:51.530Z,6.80
2019-05-10T13:34:24.408Z,8.43
2019-05-10T13:36:56.575Z,6.70
2019-05-10T13:39:28.572Z,9.33
2019-05-10T13:42:03.411Z,9.93
2019-05-10T13:44:37.087Z,8.80
2019-05-10T13:47:08.719Z,41.60
2019-05-10T13:49:40.823Z,44.77
2019-05-10T13:52:12.790Z,37.23
2019-05-10T13:54:44.774Z,9.47
2019-05-10T13:57:16.758Z,6.47
2019-05-10T13:59:54.749Z,6.00
2019-05-10T14:02:31.970Z,7.17
2019-05-10T14:04:56.158Z,6.40
2019-05-10T14:07:28.207Z,8.80
2019-05-10T14:10:00.608Z,9.63
2019-05-10T14:12:32.635Z,7.93
2019-05-10T14:15:09.830Z,7.13
2019-05-10T14:17:40.105Z,9.43
2019-05-10T14:20:19.623Z,8.40
2019-05-10T14:22:48.379Z,9.90
2019-05-10T14:25:19.884Z,5.40
2019-05-10T14:27:51.992Z,6.33
2019-05-10T14:30:24.080Z,9.13
2019-05-10T14:32:56.094Z,11.20
2019-05-10T14:35:28.055Z,11.47
2019-05-10T14:38:08.459Z,8.27
2019-05-10T14:40:37.510Z,9.83
2019-05-10T14:43:09.519Z,12.80
2019-05-10T14:45:42.778Z,12.50
2019-05-10T14:48:14.784Z,15.87
2019-05-10T14:50:47.237Z,10.60
2019-05-10T14:53:19.844Z,9.50
2019-05-10T14:55:52.959Z,7.10
2019-05-10T14:58:25.014Z,4.90
2019-05-10T15:00:56.968Z,6.10
2019-05-10T15:03:29.000Z,4.13
2019-05-10T15:06:01.742Z,4.83
2019-05-10T15:08:33.952Z,4.53
2019-05-10T15:11:06.007Z,5.50
2019-05-10T15:13:38.216Z,5.30
2019-05-10T15:16:13.186Z,4.60
2019-05-10T15:18:44.260Z,5.27
2019-05-10T15:21:16.346Z,9.20
2019-05-10T15:23:48.469Z,62.33
2019-05-10T15:26:20.795Z,12.37
2019-05-10T15:28:52.887Z,19.17
2019-05-10T15:31:29.134Z,11.10
2019-05-10T15:33:58.586Z,12.33
2019-05-10T15:36:31.765Z,13.43
2019-05-10T15:39:04.286Z,13.97
2019-05-10T15:41:36.386Z,17.00
2019-05-10T15:44:09.986Z,21.47
2019-05-10T15:46:42.539Z,19.30
2019-05-10T15:49:22.613Z,23.67
2019-05-10T15:51:49.169Z,23.63
2019-05-10T15:54:22.204Z,17.43
2019-05-10T15:56:55.650Z,14.63
2019-05-10T15:59:28.239Z,47.90
2019-05-10T16:02:00.160Z,44.50
2019-05-10T16:04:32.156Z,47.33
2019-05-10T16:07:04.139Z,43.27
2019-05-10T16:09:36.104Z,50.20
2019-05-10T16:12:08.867Z,19.97
2019-05-10T16:14:45.019Z,13.97
2019-05-10T16:17:17.033Z,12.13
2019-05-10T16:19:50.378Z,11.00
2019-05-10T16:22:25.353Z,12.87
2019-05-10T16:25:00.492Z,9.37
2019-05-10T16:27:33.962Z,9.30
2019-05-10T16:30:04.003Z,7.27
2019-05-10T16:32:36.417Z,12.30
2019-05-10T16:35:12.687Z,11.50
2019-05-10T16:37:42.361Z,17.03
2019-05-10T16:40:14.859Z,27.77
2019-05-10T16:42:46.977Z,24.40
2019-05-10T16:45:20.907Z,20.90
2019-05-10T16:47:52.887Z,18.00
2019-05-10T16:50:26.054Z,30.63
2019-05-10T16:53:05.499Z,19.40
2019-05-10T16:55:35.496Z,19.93
2019-05-10T16:58:09.584Z,16.77
2019-05-10T17:00:40.761Z,15.70
2019-05-10T17:03:18.553Z,11.17
2019-05-10T17:05:53.688Z,8.70
2019-05-10T17:08:21.291Z,10.70
2019-05-10T17:10:53.370Z,15.43
2019-05-10T17:13:27.291Z,15.33
2019-05-10T17:15:59.338Z,15.13
2019-05-10T17:18:32.058Z,17.70
2019-05-10T17:21:04.089Z,12.30
2019-05-10T17:23:36.047Z,14.23
2019-05-10T17:26:08.107Z,14.57
2019-05-10T17:28:40.432Z,15.20
2019-05-10T17:31:12.408Z,16.17
2019-05-10T17:33:44.471Z,37.40
2019-05-10T17:36:19.755Z,38.97
2019-05-10T17:38:53.551Z,24.97
2019-05-10T17:41:24.728Z,30.00
2019-05-10T17:43:59.415Z,41.03
2019-05-10T17:46:32.215Z,34.17
2019-05-10T17:49:04.353Z,27.37
2019-05-10T17:51:36.444Z,24.83
2019-05-10T17:54:08.507Z,17.73
2019-05-10T17:56:40.957Z,25.20
2019-05-10T17:59:13.995Z,22.37
2019-05-10T18:01:46.108Z,23.60
2019-05-10T18:04:18.189Z,32.17
2019-05-10T18:06:50.147Z,33.83
2019-05-10T18:09:22.232Z,31.73
2019-05-10T18:11:54.376Z,28.43
2019-05-10T18:14:29.373Z,24.27
2019-05-10T18:17:00.242Z,23.97
2019-05-10T18:19:32.303Z,26.60
2019-05-10T18:22:06.426Z,29.57
2019-05-10T18:24:42.272Z,35.60
2019-05-10T18:27:11.809Z,33.53
2019-05-10T18:29:43.839Z,30.53
2019-05-10T18:32:15.880Z,25.57
2019-05-10T18:34:47.884Z,34.43
2019-05-10T18:37:21.732Z,39.07
2019-05-10T18:39:54.856Z,37.30
2019-05-10T18:42:27.961Z,36.07
2019-05-10T18:45:00.136Z,37.30
2019-05-10T18:47:32.451Z,43.57
2019-05-10T18:50:04.376Z,46.37
2019-05-10T18:52:36.361Z,33.93
2019-05-10T18:55:08.569Z,30.27
2019-05-10T18:57:45.366Z,31.23
2019-05-10T19:00:17.766Z,31.23
2019-05-10T19:02:55.041Z,33.73
2019-05-10T19:05:25.373Z,40.03
2019-05-10T19:08:03.923Z,39.93
2019-05-10T19:10:31.254Z,35.93
2019-05-10T19:13:04.512Z,31.43
2019-05-10T19:15:36.999Z,30.17
2019-05-10T19:18:09.039Z,29.17
2019-05-10T19:20:41.319Z,32.67
2019-05-10T19:23:19.160Z,31.97
2019-05-10T19:25:51.558Z,29.73
2019-05-10T19:28:26.602Z,26.33
2019-05-10T19:30:58.674Z,22.73
2019-05-10T19:33:36.013Z,22.80
2019-05-10T19:36:02.306Z,24.10
2019-05-10T19:38:34.440Z,24.17
2019-05-10T19:41:06.483Z,29.00
2019-05-10T19:43:38.480Z,28.83
2019-05-10T19:46:10.519Z,31.03
2019-05-10T19:48:42.540Z,32.17
2019-05-10T19:51:14.626Z,32.80
2019-05-10T19:53:46.654Z,33.40
2019-05-10T19:56:18.654Z,32.63
2019-05-10T19:58:51.102Z,33.77
2019-05-10T20:01:23.068Z,38.53
2019-05-10T20:03:55.030Z,40.77
2019-05-10T20:06:27.098Z,39.60
2019-05-10T20:08:59.187Z,38.70
2019-05-10T20:11:31.161Z,34.47
2019-05-10T20:14:07.158Z,33.37
2019-05-10T20:16:51.514Z,34.47
2019-05-10T20:19:10.718Z,30.20
2019-05-10T20:21:42.991Z,33.73
2019-05-10T20:24:15.003Z,30.27
2019-05-10T20:26:47.087Z,31.70
2019-05-10T20:29:19.191Z,26.77
2019-05-10T20:31:51.462Z,31.30
2019-05-10T20:34:24.391Z,27.50
2019-05-10T20:36:56.493Z,28.07
2019-05-10T20:39:28.488Z,27.00
2019-05-10T20:42:00.879Z,29.00
2019-05-10T20:44:32.940Z,29.87
2019-05-10T20:47:05.018Z,32.70
2019-05-10T20:49:37.047Z,30.27
2019-05-10T20:52:09.044Z,34.77
2019-05-10T20:54:41.216Z,35.63
2019-05-10T20:57:13.176Z,32.80
2019-05-10T20:59:45.148Z,39.17
2019-05-10T21:02:17.142Z,39.73
2019-05-10T21:04:49.147Z,35.47
2019-05-10T21:07:21.102Z,40.37
2019-05-10T21:09:53.145Z,43.90
2019-05-10T21:12:25.270Z,45.40
2019-05-10T21:14:57.333Z,45.37
2019-05-10T21:17:29.991Z,38.53
2019-05-10T21:20:02.080Z,40.73
2019-05-10T21:22:34.149Z,37.97
2019-05-10T21:25:06.809Z,38.97
2019-05-10T21:27:38.867Z,35.73
2019-05-10T21:30:11.746Z,37.17
2019-05-10T21:32:43.835Z,35.57
2019-05-10T21:35:15.936Z,37.53
2019-05-10T21:37:47.951Z,36.47
2019-05-10T21:40:19.991Z,37.50
2019-05-10T21:42:51.967Z,37.40
2019-05-10T21:45:23.975Z,36.30
2019-05-10T21:47:55.986Z,38.77
2019-05-10T21:50:28.085Z,36.07
2019-05-10T21:53:00.399Z,37.10
2019-05-10T21:55:32.772Z,38.10
2019-05-10T21:58:04.966Z,37.33
2019-05-10T22:00:40.067Z,36.23
2019-05-10T22:03:12.108Z,35.43
2019-05-10T22:05:44.087Z,36.57
2019-05-10T22:08:16.236Z,37.00
2019-05-10T22:10:48.320Z,37.03
2019-05-10T22:13:22.398Z,33.57
2019-05-10T22:15:54.464Z,35.40
2019-05-10T22:18:26.523Z,34.17
2019-05-10T22:20:58.561Z,35.13
2019-05-10T22:23:30.570Z,33.33
2019-05-10T22:26:02.578Z,34.30
2019-05-10T22:28:34.653Z,34.57
2019-05-10T22:31:06.682Z,33.40
2019-05-10T22:33:38.911Z,34.47
2019-05-10T22:36:10.903Z,37.17
2019-05-10T22:38:44.080Z,34.27
2019-05-10T22:41:16.312Z,34.67
2019-05-10T22:43:48.505Z,36.93
2019-05-10T22:46:20.866Z,33.20
2019-05-10T22:48:52.971Z,37.27
2019-05-10T22:51:24.989Z,35.83
2019-05-10T22:53:59.887Z,36.33
2019-05-10T22:56:31.961Z,35.13
2019-05-10T22:59:04.062Z,37.63
2019-05-10T23:01:36.085Z,38.70
2019-05-10T23:04:08.264Z,39.87
2019-05-10T23:06:40.346Z,43.70
2019-05-10T23:09:24.305Z,42.83
2019-05-10T23:11:46.347Z,42.43
2019-05-10T23:14:18.326Z,42.83
2019-05-10T23:16:52.494Z,43.80
2019-05-10T23:19:26.343Z,45.67
2019-05-10T23:21:58.597Z,47.90
2019-05-10T23:24:38.533Z,47.53
2019-05-10T23:27:10.557Z,50.33
2019-05-10T23:29:42.542Z,50.50
2019-05-10T23:32:14.597Z,51.13
2019-05-10T23:34:46.842Z,55.27
2019-05-10T23:37:20.643Z,54.47
2019-05-10T23:39:54.460Z,52.20
2019-05-10T23:42:26.450Z,56.00
2019-05-10T23:44:59.629Z,53.53
2019-05-10T23:47:31.625Z,55.70
2019-05-10T23:50:04.408Z,54.67
2019-05-10T23:52:36.397Z,54.47
2019-05-10T23:55:08.889Z,54.90
2019-05-10T23:57:41.125Z,53.47
